KSOW/SOW METAR and TAF weather

Enter ICAO airport designator
Station Type Date Time Source
KSOW METAR 2018/12/19 09:55 UTC NOAA

KSOW 190955Z AUTO 07006KT 10SM CLR M02/M06 A3022 RMK AO2


Station Type Date Time Source
KSOW Decoded METAR 2018/12/19 09:55 UTC NOAA

Show Low, Show Low Regional Airport, AZ, United States (KSOW) 34-15-55N 110-00-20W
Dec 19, 2018 - 04:55 AM EST / 2018.12.19 0955 UTC
Wind: from the ENE (070 degrees) at 7 MPH (6 KT):0
Visibility: 10 mile(s):0
Sky conditions: clear
Temperature: 28 F (-2 C)
Windchill: 21 F (-6 C):1
Dew Point: 21 F (-6 C)
Relative Humidity: 74%
Pressure (altimeter): 30.22 in. Hg (1023 hPa)
ob: KSOW 190955Z AUTO 07006KT 10SM CLR M02/M06 A3022 RMK AO2
cycle: 10

Station Type Date Time Source
KSOW TAF UTC NOAA

Error!


Example: see airport list